sensor_id;sensor_type;location;lat;lon;timestamp;temperature;humidity
12152;DHT22;6139;51.274;7.128;2023-04-25T00:00:24;6.20;1.00
12152;DHT22;6139;51.274;7.128;2023-04-25T00:01:25;6.20;1.00
12152;DHT22;6139;51.274;7.128;2023-04-25T00:02:27;6.20;1.00
12152;DHT22;6139;51.274;7.128;2023-04-25T00:03:29;6.20;1.00
12152;DHT22;6139;51.274;7.128;2023-04-25T00:04:31;6.20;1.00
12152;DHT22;6139;51.274;7.128;2023-04-25T00:05:34;6.20;1.00
12152;DHT22;6139;51.274;7.128;2023-04-25T00:06:37;6.20;1.00
12152;DHT22;6139;51.274;7.128;2023-04-25T00:07:38;6.30;1.00
12152;DHT22;6139;51.274;7.128;2023-04-25T00:08:43;6.30;1.00
12152;DHT22;6139;51.274;7.128;2023-04-25T00:09:44;6.30;1.00
12152;DHT22;6139;51.274;7.128;2023-04-25T00:10:46;6.30;1.00
12152;DHT22;6139;51.274;7.128;2023-04-25T00:11:49;6.30;1.00
12152;DHT22;6139;51.274;7.128;2023-04-25T00:12:51;6.30;1.00
12152;DHT22;6139;51.274;7.128;2023-04-25T00:13:52;6.30;1.00
12152;DHT22;6139;51.274;7.128;2023-04-25T00:14:55;6.30;1.00
12152;DHT22;6139;51.274;7.128;2023-04-25T00:15:58;6.30;1.00
12152;DHT22;6139;51.274;7.128;2023-04-25T00:17:01;6.30;1.00
12152;DHT22;6139;51.274;7.128;2023-04-25T00:18:02;6.30;1.00
12152;DHT22;6139;51.274;7.128;2023-04-25T00:19:04;6.30;1.00
12152;DHT22;6139;51.274;7.128;2023-04-25T00:20:06;6.30;1.00
12152;DHT22;6139;51.274;7.128;2023-04-25T00:21:10;6.30;1.00
12152;DHT22;6139;51.274;7.128;2023-04-25T00:22:11;6.30;1.00
12152;DHT22;6139;51.274;7.128;2023-04-25T00:23:13;6.30;1.00
12152;DHT22;6139;51.274;7.128;2023-04-25T00:24:19;6.30;1.00
12152;DHT22;6139;51.274;7.128;2023-04-25T00:25:21;6.30;1.00
12152;DHT22;6139;51.274;7.128;2023-04-25T00:26:22;6.30;1.00
12152;DHT22;6139;51.274;7.128;2023-04-25T00:27:24;6.30;1.00
12152;DHT22;6139;51.274;7.128;2023-04-25T00:28:25;6.30;1.00
12152;DHT22;6139;51.274;7.128;2023-04-25T00:29:27;6.30;1.00
12152;DHT22;6139;51.274;7.128;2023-04-25T00:30:28;6.30;1.00
12152;DHT22;6139;51.274;7.128;2023-04-25T00:31:30;6.40;1.00
12152;DHT22;6139;51.274;7.128;2023-04-25T00:32:31;6.40;1.00
12152;DHT22;6139;51.274;7.128;2023-04-25T00:33:33;6.30;1.00
12152;DHT22;6139;51.274;7.128;2023-04-25T00:34:34;6.40;1.00
12152;DHT22;6139;51.274;7.128;2023-04-25T00:35:37;6.40;1.00
12152;DHT22;6139;51.274;7.128;2023-04-25T00:36:39;6.40;1.00
12152;DHT22;6139;51.274;7.128;2023-04-25T00:37:41;6.30;1.00
12152;DHT22;6139;51.274;7.128;2023-04-25T00:38:42;6.30;1.00
12152;DHT22;6139;51.274;7.128;2023-04-25T00:39:45;6.30;1.00
12152;DHT22;6139;51.274;7.128;2023-04-25T00:40:46;6.40;1.00
12152;DHT22;6139;51.274;7.128;2023-04-25T00:41:48;6.40;1.00
12152;DHT22;6139;51.274;7.128;2023-04-25T00:42:53;6.30;1.00
12152;DHT22;6139;51.274;7.128;2023-04-25T00:43:56;6.30;1.00
12152;DHT22;6139;51.274;7.128;2023-04-25T00:44:58;6.40;1.00
12152;DHT22;6139;51.274;7.128;2023-04-25T00:46:00;6.40;1.00
12152;DHT22;6139;51.274;7.128;2023-04-25T00:47:02;6.40;1.00
12152;DHT22;6139;51.274;7.128;2023-04-25T00:48:04;6.40;1.00
12152;DHT22;6139;51.274;7.128;2023-04-25T00:49:06;6.40;1.00
12152;DHT22;6139;51.274;7.128;2023-04-25T00:50:09;6.40;1.00
12152;DHT22;6139;51.274;7.128;2023-04-25T00:51:12;6.40;1.00
12152;DHT22;6139;51.274;7.128;2023-04-25T00:52:15;6.40;1.00
12152;DHT22;6139;51.274;7.128;2023-04-25T00:53:16;6.40;1.00
12152;DHT22;6139;51.274;7.128;2023-04-25T00:54:18;6.40;1.00
12152;DHT22;6139;51.274;7.128;2023-04-25T00:55:21;6.40;1.00
12152;DHT22;6139;51.274;7.128;2023-04-25T00:56:23;6.40;1.00
12152;DHT22;6139;51.274;7.128;2023-04-25T00:57:24;6.40;1.00
12152;DHT22;6139;51.274;7.128;2023-04-25T00:58:27;6.40;1.00
12152;DHT22;6139;51.274;7.128;2023-04-25T00:59:28;6.40;1.00
12152;DHT22;6139;51.274;7.128;2023-04-25T01:00:31;6.40;1.00
12152;DHT22;6139;51.274;7.128;2023-04-25T01:01:33;6.40;1.00
12152;DHT22;6139;51.274;7.128;2023-04-25T01:02:35;6.40;1.00
12152;DHT22;6139;51.274;7.128;2023-04-25T01:03:38;6.40;1.00
12152;DHT22;6139;51.274;7.128;2023-04-25T01:04:41;6.40;1.00
12152;DHT22;6139;51.274;7.128;2023-04-25T01:05:43;6.50;1.00
12152;DHT22;6139;51.274;7.128;2023-04-25T01:06:45;6.50;1.00
12152;DHT22;6139;51.274;7.128;2023-04-25T01:07:46;6.50;1.00
12152;DHT22;6139;51.274;7.128;2023-04-25T01:08:48;6.50;1.00
12152;DHT22;6139;51.274;7.128;2023-04-25T01:09:51;6.50;1.00
12152;DHT22;6139;51.274;7.128;2023-04-25T01:10:54;6.40;1.00
12152;DHT22;6139;51.274;7.128;2023-04-25T01:11:55;6.40;1.00
12152;DHT22;6139;51.274;7.128;2023-04-25T01:12:58;6.40;1.00
12152;DHT22;6139;51.274;7.128;2023-04-25T01:13:59;6.50;1.00
12152;DHT22;6139;51.274;7.128;2023-04-25T01:15:03;6.50;1.00
12152;DHT22;6139;51.274;7.128;2023-04-25T01:16:05;6.40;1.00
12152;DHT22;6139;51.274;7.128;2023-04-25T01:17:07;6.50;1.00
12152;DHT22;6139;51.274;7.128;2023-04-25T01:18:09;6.50;1.00
12152;DHT22;6139;51.274;7.128;2023-04-25T01:19:16;6.50;1.00
12152;DHT22;6139;51.274;7.128;2023-04-25T01:20:22;6.50;1.00
12152;DHT22;6139;51.274;7.128;2023-04-25T01:21:26;6.50;1.00
12152;DHT22;6139;51.274;7.128;2023-04-25T01:22:30;6.50;1.00
12152;DHT22;6139;51.274;7.128;2023-04-25T01:23:33;6.50;1.00
12152;DHT22;6139;51.274;7.128;2023-04-25T01:24:34;6.50;1.00
12152;DHT22;6139;51.274;7.128;2023-04-25T01:25:37;6.50;1.00
12152;DHT22;6139;51.274;7.128;2023-04-25T01:26:38;6.50;1.00
12152;DHT22;6139;51.274;7.128;2023-04-25T01:27:41;6.50;1.00
12152;DHT22;6139;51.274;7.128;2023-04-25T01:28:42;6.50;1.00
12152;DHT22;6139;51.274;7.128;2023-04-25T01:29:45;6.50;1.00
12152;DHT22;6139;51.274;7.128;2023-04-25T01:30:47;6.50;1.00
12152;DHT22;6139;51.274;7.128;2023-04-25T01:31:50;6.50;1.00
12152;DHT22;6139;51.274;7.128;2023-04-25T01:32:53;6.40;1.00
12152;DHT22;6139;51.274;7.128;2023-04-25T01:33:56;6.40;1.00
12152;DHT22;6139;51.274;7.128;2023-04-25T01:34:57;6.40;1.00
12152;DHT22;6139;51.274;7.128;2023-04-25T01:36:01;6.40;1.00
12152;DHT22;6139;51.274;7.128;2023-04-25T01:37:03;6.40;1.00
12152;DHT22;6139;51.274;7.128;2023-04-25T01:38:05;6.40;1.00
12152;DHT22;6139;51.274;7.128;2023-04-25T01:39:07;6.40;1.00
12152;DHT22;6139;51.274;7.128;2023-04-25T01:40:10;6.50;1.00
12152;DHT22;6139;51.274;7.128;2023-04-25T01:41:12;6.40;1.00
12152;DHT22;6139;51.274;7.128;2023-04-25T01:42:14;6.50;1.00
12152;DHT22;6139;51.274;7.128;2023-04-25T01:43:15;6.50;1.00
12152;DHT22;6139;51.274;7.128;2023-04-25T01:44:18;6.50;1.00
12152;DHT22;6139;51.274;7.128;2023-04-25T01:45:19;6.40;1.00
12152;DHT22;6139;51.274;7.128;2023-04-25T01:46:21;6.40;1.00
12152;DHT22;6139;51.274;7.128;2023-04-25T01:47:22;6.40;1.00
12152;DHT22;6139;51.274;7.128;2023-04-25T01:48:24;6.40;1.00
12152;DHT22;6139;51.274;7.128;2023-04-25T01:49:25;6.40;1.00
12152;DHT22;6139;51.274;7.128;2023-04-25T01:50:27;6.40;1.00
12152;DHT22;6139;51.274;7.128;2023-04-25T01:51:28;6.40;1.00
12152;DHT22;6139;51.274;7.128;2023-04-25T01:52:31;6.50;1.00
12152;DHT22;6139;51.274;7.128;2023-04-25T01:53:33;6.50;1.00
12152;DHT22;6139;51.274;7.128;2023-04-25T01:54:37;6.50;1.00
12152;DHT22;6139;51.274;7.128;2023-04-25T01:55:38;6.50;1.00
12152;DHT22;6139;51.274;7.128;2023-04-25T01:56:49;6.50;1.00
12152;DHT22;6139;51.274;7.128;2023-04-25T01:57:51;6.50;1.00
12152;DHT22;6139;51.274;7.128;2023-04-25T01:58:55;6.40;1.00
12152;DHT22;6139;51.274;7.128;2023-04-25T02:00:22;6.50;1.00
12152;DHT22;6139;51.274;7.128;2023-04-25T02:01:23;6.50;1.00
12152;DHT22;6139;51.274;7.128;2023-04-25T02:02:43;6.40;1.00
12152;DHT22;6139;51.274;7.128;2023-04-25T02:04:10;6.40;1.00
12152;DHT22;6139;51.274;7.128;2023-04-25T02:05:14;6.40;1.00
12152;DHT22;6139;51.274;7.128;2023-04-25T02:06:16;6.40;1.00
12152;DHT22;6139;51.274;7.128;2023-04-25T02:07:20;6.40;1.00
12152;DHT22;6139;51.274;7.128;2023-04-25T02:08:26;6.40;1.00
12152;DHT22;6139;51.274;7.128;2023-04-25T02:09:29;6.40;1.00
12152;DHT22;6139;51.274;7.128;2023-04-25T02:10:31;6.40;1.00
12152;DHT22;6139;51.274;7.128;2023-04-25T02:11:44;6.40;1.00
12152;DHT22;6139;51.274;7.128;2023-04-25T02:13:08;6.40;1.00
12152;DHT22;6139;51.274;7.128;2023-04-25T02:14:33;6.40;1.00
12152;DHT22;6139;51.274;7.128;2023-04-25T02:15:38;6.40;1.00
12152;DHT22;6139;51.274;7.128;2023-04-25T02:16:52;6.40;1.00
12152;DHT22;6139;51.274;7.128;2023-04-25T02:17:53;6.40;1.00
12152;DHT22;6139;51.274;7.128;2023-04-25T02:18:55;6.40;1.00
12152;DHT22;6139;51.274;7.128;2023-04-25T02:19:56;6.40;1.00
12152;DHT22;6139;51.274;7.128;2023-04-25T02:20:59;6.40;1.00
12152;DHT22;6139;51.274;7.128;2023-04-25T02:22:00;6.40;1.00
12152;DHT22;6139;51.274;7.128;2023-04-25T02:23:02;6.40;1.00
12152;DHT22;6139;51.274;7.128;2023-04-25T02:24:05;6.40;1.00
12152;DHT22;6139;51.274;7.128;2023-04-25T02:25:09;6.30;1.00
12152;DHT22;6139;51.274;7.128;2023-04-25T02:26:11;6.40;1.00
12152;DHT22;6139;51.274;7.128;2023-04-25T02:27:14;6.40;1.00
12152;DHT22;6139;51.274;7.128;2023-04-25T02:28:14;6.40;1.00
12152;DHT22;6139;51.274;7.128;2023-04-25T02:29:17;6.40;1.00
12152;DHT22;6139;51.274;7.128;2023-04-25T02:30:19;6.40;1.00
12152;DHT22;6139;51.274;7.128;2023-04-25T02:31:20;6.40;1.00
12152;DHT22;6139;51.274;7.128;2023-04-25T02:32:22;6.30;1.00
12152;DHT22;6139;51.274;7.128;2023-04-25T02:33:23;6.40;1.00
12152;DHT22;6139;51.274;7.128;2023-04-25T02:34:25;6.30;1.00
12152;DHT22;6139;51.274;7.128;2023-04-25T02:35:26;6.40;1.00
12152;DHT22;6139;51.274;7.128;2023-04-25T02:36:28;6.40;1.00
12152;DHT22;6139;51.274;7.128;2023-04-25T02:37:34;6.40;1.00
12152;DHT22;6139;51.274;7.128;2023-04-25T02:38:36;6.40;1.00
12152;DHT22;6139;51.274;7.128;2023-04-25T02:39:40;6.40;1.00
12152;DHT22;6139;51.274;7.128;2023-04-25T02:40:42;6.40;1.00
12152;DHT22;6139;51.274;7.128;2023-04-25T02:41:43;6.40;1.00
12152;DHT22;6139;51.274;7.128;2023-04-25T02:42:45;6.40;1.00
12152;DHT22;6139;51.274;7.128;2023-04-25T02:43:46;6.40;1.00
12152;DHT22;6139;51.274;7.128;2023-04-25T02:44:48;6.40;1.00
12152;DHT22;6139;51.274;7.128;2023-04-25T02:45:49;6.30;1.00
12152;DHT22;6139;51.274;7.128;2023-04-25T02:46:52;6.30;1.00
12152;DHT22;6139;51.274;7.128;2023-04-25T02:47:53;6.30;1.00
12152;DHT22;6139;51.274;7.128;2023-04-25T02:48:55;6.30;1.00
12152;DHT22;6139;51.274;7.128;2023-04-25T02:49:56;6.30;1.00
12152;DHT22;6139;51.274;7.128;2023-04-25T02:50:58;6.30;1.00
12152;DHT22;6139;51.274;7.128;2023-04-25T02:51:59;6.30;1.00
12152;DHT22;6139;51.274;7.128;2023-04-25T02:53:01;6.30;1.00
12152;DHT22;6139;51.274;7.128;2023-04-25T02:54:08;6.30;1.00
12152;DHT22;6139;51.274;7.128;2023-04-25T02:55:16;6.30;1.00
12152;DHT22;6139;51.274;7.128;2023-04-25T02:56:18;6.30;24.70
12152;DHT22;6139;51.274;7.128;2023-04-25T02:57:20;6.30;1.00
12152;DHT22;6139;51.274;7.128;2023-04-25T02:58:21;6.30;1.00
12152;DHT22;6139;51.274;7.128;2023-04-25T02:59:26;6.30;1.00
12152;DHT22;6139;51.274;7.128;2023-04-25T03:00:27;6.30;1.00
12152;DHT22;6139;51.274;7.128;2023-04-25T03:01:29;6.30;1.00
12152;DHT22;6139;51.274;7.128;2023-04-25T03:02:30;6.30;1.30
12152;DHT22;6139;51.274;7.128;2023-04-25T03:03:32;6.30;30.00
12152;DHT22;6139;51.274;7.128;2023-04-25T03:04:33;6.30;1.00
12152;DHT22;6139;51.274;7.128;2023-04-25T03:05:35;6.40;2.70
12152;DHT22;6139;51.274;7.128;2023-04-25T03:06:36;6.40;1.00
12152;DHT22;6139;51.274;7.128;2023-04-25T03:07:38;6.40;1.00
12152;DHT22;6139;51.274;7.128;2023-04-25T03:08:40;6.40;1.00
12152;DHT22;6139;51.274;7.128;2023-04-25T03:09:42;6.30;1.00
12152;DHT22;6139;51.274;7.128;2023-04-25T03:10:44;6.30;36.60
12152;DHT22;6139;51.274;7.128;2023-04-25T03:11:49;6.30;1.00
12152;DHT22;6139;51.274;7.128;2023-04-25T03:12:50;6.30;1.00
12152;DHT22;6139;51.274;7.128;2023-04-25T03:13:52;6.30;1.00
12152;DHT22;6139;51.274;7.128;2023-04-25T03:14:54;6.30;1.00
12152;DHT22;6139;51.274;7.128;2023-04-25T03:15:55;6.40;10.80
12152;DHT22;6139;51.274;7.128;2023-04-25T03:16:56;6.40;21.40
12152;DHT22;6139;51.274;7.128;2023-04-25T03:17:58;6.40;30.00
12152;DHT22;6139;51.274;7.128;2023-04-25T03:18:59;6.40;1.00
12152;DHT22;6139;51.274;7.128;2023-04-25T03:20:01;6.40;1.00
12152;DHT22;6139;51.274;7.128;2023-04-25T03:21:06;6.40;1.00
12152;DHT22;6139;51.274;7.128;2023-04-25T03:22:08;6.30;1.00
12152;DHT22;6139;51.274;7.128;2023-04-25T03:23:10;6.40;1.00
12152;DHT22;6139;51.274;7.128;2023-04-25T03:24:14;6.40;1.00
12152;DHT22;6139;51.274;7.128;2023-04-25T03:25:16;6.40;1.00
12152;DHT22;6139;51.274;7.128;2023-04-25T03:26:19;6.40;1.00
12152;DHT22;6139;51.274;7.128;2023-04-25T03:27:20;6.40;1.00
12152;DHT22;6139;51.274;7.128;2023-04-25T03:28:22;6.40;1.00
12152;DHT22;6139;51.274;7.128;2023-04-25T03:29:23;6.30;1.00
12152;DHT22;6139;51.274;7.128;2023-04-25T03:30:27;6.30;1.00
12152;DHT22;6139;51.274;7.128;2023-04-25T03:31:28;6.30;1.00
12152;DHT22;6139;51.274;7.128;2023-04-25T03:32:31;6.30;10.70
12152;DHT22;6139;51.274;7.128;2023-04-25T03:33:32;6.30;1.00
12152;DHT22;6139;51.274;7.128;2023-04-25T03:34:34;6.30;1.00
12152;DHT22;6139;51.274;7.128;2023-04-25T03:35:35;6.30;6.60
12152;DHT22;6139;51.274;7.128;2023-04-25T03:36:37;6.30;1.00
12152;DHT22;6139;51.274;7.128;2023-04-25T03:37:39;6.30;1.00
12152;DHT22;6139;51.274;7.128;2023-04-25T03:38:41;6.30;1.00
12152;DHT22;6139;51.274;7.128;2023-04-25T03:39:44;6.30;5.10
12152;DHT22;6139;51.274;7.128;2023-04-25T03:40:45;6.30;1.60
12152;DHT22;6139;51.274;7.128;2023-04-25T03:41:58;6.30;8.60
12152;DHT22;6139;51.274;7.128;2023-04-25T03:42:59;6.30;3.80
12152;DHT22;6139;51.274;7.128;2023-04-25T03:44:03;6.30;1.00
12152;DHT22;6139;51.274;7.128;2023-04-25T03:45:05;6.30;7.10
12152;DHT22;6139;51.274;7.128;2023-04-25T03:46:07;6.30;1.00
12152;DHT22;6139;51.274;7.128;2023-04-25T03:47:09;6.30;1.00
12152;DHT22;6139;51.274;7.128;2023-04-25T03:48:11;6.30;1.00
12152;DHT22;6139;51.274;7.128;2023-04-25T03:49:13;6.30;12.00
12152;DHT22;6139;51.274;7.128;2023-04-25T03:50:32;6.30;1.00
12152;DHT22;6139;51.274;7.128;2023-04-25T03:51:33;6.30;16.00
12152;DHT22;6139;51.274;7.128;2023-04-25T03:52:36;6.30;1.10
12152;DHT22;6139;51.274;7.128;2023-04-25T03:53:37;6.30;4.70
12152;DHT22;6139;51.274;7.128;2023-04-25T03:54:54;6.30;3.60
12152;DHT22;6139;51.274;7.128;2023-04-25T03:55:59;6.30;7.40
12152;DHT22;6139;51.274;7.128;2023-04-25T03:57:01;6.30;33.00
12152;DHT22;6139;51.274;7.128;2023-04-25T03:58:06;6.30;1.00
12152;DHT22;6139;51.274;7.128;2023-04-25T03:59:09;6.30;1.00
12152;DHT22;6139;51.274;7.128;2023-04-25T04:00:12;6.30;1.00
12152;DHT22;6139;51.274;7.128;2023-04-25T04:01:16;6.30;1.50
12152;DHT22;6139;51.274;7.128;2023-04-25T04:02:19;6.30;14.40
12152;DHT22;6139;51.274;7.128;2023-04-25T04:03:20;6.30;20.30
12152;DHT22;6139;51.274;7.128;2023-04-25T04:04:22;6.30;39.40
12152;DHT22;6139;51.274;7.128;2023-04-25T04:05:23;6.30;56.60
12152;DHT22;6139;51.274;7.128;2023-04-25T04:06:29;6.30;68.40
12152;DHT22;6139;51.274;7.128;2023-04-25T04:07:37;6.30;27.50
12152;DHT22;6139;51.274;7.128;2023-04-25T04:08:42;6.30;67.30
12152;DHT22;6139;51.274;7.128;2023-04-25T04:09:44;6.30;20.20
12152;DHT22;6139;51.274;7.128;2023-04-25T04:10:57;6.30;13.20
12152;DHT22;6139;51.274;7.128;2023-04-25T04:11:58;6.30;14.90
12152;DHT22;6139;51.274;7.128;2023-04-25T04:13:03;6.30;34.70
12152;DHT22;6139;51.274;7.128;2023-04-25T04:14:05;6.20;1.00
12152;DHT22;6139;51.274;7.128;2023-04-25T04:15:08;6.20;99.90
12152;DHT22;6139;51.274;7.128;2023-04-25T04:16:09;6.20;75.90
12152;DHT22;6139;51.274;7.128;2023-04-25T04:17:11;6.30;61.90
12152;DHT22;6139;51.274;7.128;2023-04-25T04:18:12;6.20;40.90
12152;DHT22;6139;51.274;7.128;2023-04-25T04:19:14;6.20;58.10
12152;DHT22;6139;51.274;7.128;2023-04-25T04:20:21;6.20;58.40
12152;DHT22;6139;51.274;7.128;2023-04-25T04:21:23;6.20;58.50
12152;DHT22;6139;51.274;7.128;2023-04-25T04:22:25;6.30;48.70
12152;DHT22;6139;51.274;7.128;2023-04-25T04:23:30;6.30;58.50
12152;DHT22;6139;51.274;7.128;2023-04-25T04:24:32;6.20;23.10
12152;DHT22;6139;51.274;7.128;2023-04-25T04:25:37;6.20;34.80
12152;DHT22;6139;51.274;7.128;2023-04-25T04:26:52;6.20;1.00
12152;DHT22;6139;51.274;7.128;2023-04-25T04:28:09;6.20;1.00
12152;DHT22;6139;51.274;7.128;2023-04-25T04:29:40;6.20;4.60
12152;DHT22;6139;51.274;7.128;2023-04-25T04:30:47;6.20;10.00
12152;DHT22;6139;51.274;7.128;2023-04-25T04:31:49;6.10;51.90
12152;DHT22;6139;51.274;7.128;2023-04-25T04:32:51;6.20;18.60
12152;DHT22;6139;51.274;7.128;2023-04-25T04:33:52;6.10;10.10
12152;DHT22;6139;51.274;7.128;2023-04-25T04:34:54;6.10;4.40
12152;DHT22;6139;51.274;7.128;2023-04-25T04:35:57;6.10;38.20
12152;DHT22;6139;51.274;7.128;2023-04-25T04:37:00;6.10;64.00
12152;DHT22;6139;51.274;7.128;2023-04-25T04:38:01;6.20;15.00
12152;DHT22;6139;51.274;7.128;2023-04-25T04:39:07;6.20;1.00
12152;DHT22;6139;51.274;7.128;2023-04-25T04:40:13;6.20;1.00
12152;DHT22;6139;51.274;7.128;2023-04-25T04:41:36;6.20;1.00
12152;DHT22;6139;51.274;7.128;2023-04-25T04:42:45;6.20;2.50
12152;DHT22;6139;51.274;7.128;2023-04-25T04:44:12;6.10;1.00
12152;DHT22;6139;51.274;7.128;2023-04-25T04:45:34;6.20;1.00
12152;DHT22;6139;51.274;7.128;2023-04-25T04:47:03;6.20;1.00
12152;DHT22;6139;51.274;7.128;2023-04-25T04:48:31;6.20;1.00
12152;DHT22;6139;51.274;7.128;2023-04-25T04:49:55;6.20;26.00
12152;DHT22;6139;51.274;7.128;2023-04-25T04:51:35;6.10;26.60
12152;DHT22;6139;51.274;7.128;2023-04-25T04:52:45;6.20;40.40
12152;DHT22;6139;51.274;7.128;2023-04-25T04:54:04;6.20;1.00
12152;DHT22;6139;51.274;7.128;2023-04-25T04:55:24;6.20;1.00
12152;DHT22;6139;51.274;7.128;2023-04-25T04:56:51;6.10;1.00
12152;DHT22;6139;51.274;7.128;2023-04-25T04:58:12;6.10;1.00
12152;DHT22;6139;51.274;7.128;2023-04-25T04:59:34;6.10;5.60
12152;DHT22;6139;51.274;7.128;2023-04-25T05:00:53;6.10;16.70
12152;DHT22;6139;51.274;7.128;2023-04-25T05:02:12;6.10;25.90
12152;DHT22;6139;51.274;7.128;2023-04-25T05:03:36;6.10;21.80
12152;DHT22;6139;51.274;7.128;2023-04-25T05:04:58;6.10;64.90
12152;DHT22;6139;51.274;7.128;2023-04-25T05:06:18;6.10;22.30
12152;DHT22;6139;51.274;7.128;2023-04-25T05:07:39;6.10;13.80
12152;DHT22;6139;51.274;7.128;2023-04-25T05:08:59;6.00;1.00
12152;DHT22;6139;51.274;7.128;2023-04-25T05:10:30;6.00;51.70
12152;DHT22;6139;51.274;7.128;2023-04-25T05:11:40;6.10;58.60
12152;DHT22;6139;51.274;7.128;2023-04-25T05:13:13;6.00;56.10
12152;DHT22;6139;51.274;7.128;2023-04-25T05:14:38;6.00;68.60
12152;DHT22;6139;51.274;7.128;2023-04-25T05:15:48;6.00;65.80
12152;DHT22;6139;51.274;7.128;2023-04-25T05:16:52;6.10;94.90
12152;DHT22;6139;51.274;7.128;2023-04-25T05:18:10;6.10;81.20
12152;DHT22;6139;51.274;7.128;2023-04-25T05:19:35;6.10;35.80
12152;DHT22;6139;51.274;7.128;2023-04-25T05:20:50;6.10;22.40
12152;DHT22;6139;51.274;7.128;2023-04-25T05:22:01;6.10;1.00
12152;DHT22;6139;51.274;7.128;2023-04-25T05:23:09;6.10;1.00
12152;DHT22;6139;51.274;7.128;2023-04-25T05:24:30;6.10;1.00
12152;DHT22;6139;51.274;7.128;2023-04-25T05:25:59;6.10;1.00
12152;DHT22;6139;51.274;7.128;2023-04-25T05:27:11;6.10;1.00
12152;DHT22;6139;51.274;7.128;2023-04-25T05:28:36;6.10;1.00
12152;DHT22;6139;51.274;7.128;2023-04-25T05:30:06;6.00;1.00
12152;DHT22;6139;51.274;7.128;2023-04-25T05:31:31;6.00;1.00
12152;DHT22;6139;51.274;7.128;2023-04-25T05:32:42;6.00;1.00
12152;DHT22;6139;51.274;7.128;2023-04-25T05:33:44;6.00;1.00
12152;DHT22;6139;51.274;7.128;2023-04-25T05:34:46;6.00;1.00
12152;DHT22;6139;51.274;7.128;2023-04-25T05:36:00;5.90;1.00
12152;DHT22;6139;51.274;7.128;2023-04-25T05:37:01;6.00;1.00
12152;DHT22;6139;51.274;7.128;2023-04-25T05:38:04;5.90;1.00
12152;DHT22;6139;51.274;7.128;2023-04-25T05:39:23;5.90;1.00
12152;DHT22;6139;51.274;7.128;2023-04-25T05:40:37;6.00;1.00
12152;DHT22;6139;51.274;7.128;2023-04-25T05:42:00;6.00;1.00
12152;DHT22;6139;51.274;7.128;2023-04-25T05:43:30;6.00;1.00
12152;DHT22;6139;51.274;7.128;2023-04-25T05:44:49;6.00;1.00
12152;DHT22;6139;51.274;7.128;2023-04-25T05:45:59;6.00;1.00
12152;DHT22;6139;51.274;7.128;2023-04-25T05:47:23;6.00;1.00
12152;DHT22;6139;51.274;7.128;2023-04-25T05:48:34;6.00;1.00
12152;DHT22;6139;51.274;7.128;2023-04-25T05:50:10;6.00;1.00
12152;DHT22;6139;51.274;7.128;2023-04-25T05:51:34;6.00;1.00
12152;DHT22;6139;51.274;7.128;2023-04-25T05:53:02;6.00;1.00
12152;DHT22;6139;51.274;7.128;2023-04-25T05:54:17;6.00;1.00
12152;DHT22;6139;51.274;7.128;2023-04-25T05:55:18;6.00;1.00
12152;DHT22;6139;51.274;7.128;2023-04-25T05:56:21;6.00;1.00
12152;DHT22;6139;51.274;7.128;2023-04-25T05:57:26;6.00;1.00
12152;DHT22;6139;51.274;7.128;2023-04-25T05:58:30;6.00;1.00
12152;DHT22;6139;51.274;7.128;2023-04-25T05:59:33;6.00;1.00
12152;DHT22;6139;51.274;7.128;2023-04-25T06:00:35;6.00;1.00
12152;DHT22;6139;51.274;7.128;2023-04-25T06:01:38;6.10;1.00
12152;DHT22;6139;51.274;7.128;2023-04-25T06:02:41;6.10;1.00
12152;DHT22;6139;51.274;7.128;2023-04-25T06:03:42;6.10;1.00
12152;DHT22;6139;51.274;7.128;2023-04-25T06:04:44;6.10;1.00
12152;DHT22;6139;51.274;7.128;2023-04-25T06:05:45;6.10;1.00
12152;DHT22;6139;51.274;7.128;2023-04-25T06:06:47;6.10;1.00
12152;DHT22;6139;51.274;7.128;2023-04-25T06:07:48;6.10;1.00
12152;DHT22;6139;51.274;7.128;2023-04-25T06:08:50;6.20;1.00
12152;DHT22;6139;51.274;7.128;2023-04-25T06:09:51;6.20;1.00
12152;DHT22;6139;51.274;7.128;2023-04-25T06:10:54;6.20;1.00
12152;DHT22;6139;51.274;7.128;2023-04-25T06:11:55;6.30;1.00
12152;DHT22;6139;51.274;7.128;2023-04-25T06:12:57;6.30;1.00
12152;DHT22;6139;51.274;7.128;2023-04-25T06:13:59;6.30;1.00
12152;DHT22;6139;51.274;7.128;2023-04-25T06:15:03;6.30;1.00
12152;DHT22;6139;51.274;7.128;2023-04-25T06:16:06;6.30;1.00
12152;DHT22;6139;51.274;7.128;2023-04-25T06:17:09;6.30;1.00
12152;DHT22;6139;51.274;7.128;2023-04-25T06:18:10;6.30;1.00
12152;DHT22;6139;51.274;7.128;2023-04-25T06:19:12;6.30;1.00
12152;DHT22;6139;51.274;7.128;2023-04-25T06:20:13;6.30;1.00
12152;DHT22;6139;51.274;7.128;2023-04-25T06:21:15;6.40;1.00
12152;DHT22;6139;51.274;7.128;2023-04-25T06:22:16;6.40;1.00
12152;DHT22;6139;51.274;7.128;2023-04-25T06:23:18;6.40;1.00
12152;DHT22;6139;51.274;7.128;2023-04-25T06:24:25;6.40;1.00
12152;DHT22;6139;51.274;7.128;2023-04-25T06:25:27;6.40;1.00
12152;DHT22;6139;51.274;7.128;2023-04-25T06:26:29;6.40;1.00
12152;DHT22;6139;51.274;7.128;2023-04-25T06:27:31;6.40;1.00
12152;DHT22;6139;51.274;7.128;2023-04-25T06:28:32;6.40;1.00
12152;DHT22;6139;51.274;7.128;2023-04-25T06:29:34;6.40;1.00
12152;DHT22;6139;51.274;7.128;2023-04-25T06:30:35;6.40;1.00
12152;DHT22;6139;51.274;7.128;2023-04-25T06:31:42;6.40;1.00
12152;DHT22;6139;51.274;7.128;2023-04-25T06:32:45;6.50;1.00
12152;DHT22;6139;51.274;7.128;2023-04-25T06:33:46;6.50;1.00
12152;DHT22;6139;51.274;7.128;2023-04-25T06:34:48;6.50;1.00
12152;DHT22;6139;51.274;7.128;2023-04-25T06:35:50;6.50;1.00
12152;DHT22;6139;51.274;7.128;2023-04-25T06:36:56;6.50;1.00
12152;DHT22;6139;51.274;7.128;2023-04-25T06:37:58;6.50;1.00
12152;DHT22;6139;51.274;7.128;2023-04-25T06:38:59;6.60;1.00
12152;DHT22;6139;51.274;7.128;2023-04-25T06:40:01;6.60;1.00
12152;DHT22;6139;51.274;7.128;2023-04-25T06:41:03;6.60;1.00
12152;DHT22;6139;51.274;7.128;2023-04-25T06:42:09;6.50;1.00
12152;DHT22;6139;51.274;7.128;2023-04-25T06:43:42;6.50;1.00
12152;DHT22;6139;51.274;7.128;2023-04-25T06:44:56;6.60;1.00
12152;DHT22;6139;51.274;7.128;2023-04-25T06:45:58;6.60;1.00
12152;DHT22;6139;51.274;7.128;2023-04-25T06:47:03;6.60;1.00
12152;DHT22;6139;51.274;7.128;2023-04-25T06:48:07;6.70;1.00
12152;DHT22;6139;51.274;7.128;2023-04-25T06:49:08;6.70;99.90
12152;DHT22;6139;51.274;7.128;2023-04-25T06:50:10;6.70;99.90
12152;DHT22;6139;51.274;7.128;2023-04-25T06:51:11;6.70;57.10
12152;DHT22;6139;51.274;7.128;2023-04-25T06:52:14;6.70;99.90
12152;DHT22;6139;51.274;7.128;2023-04-25T06:53:16;6.70;57.80
12152;DHT22;6139;51.274;7.128;2023-04-25T06:54:20;6.70;1.00
12152;DHT22;6139;51.274;7.128;2023-04-25T06:55:33;6.70;99.90
12152;DHT22;6139;51.274;7.128;2023-04-25T06:56:56;6.70;99.90
12152;DHT22;6139;51.274;7.128;2023-04-25T06:57:58;6.80;99.90
12152;DHT22;6139;51.274;7.128;2023-04-25T06:59:17;6.80;1.00
12152;DHT22;6139;51.274;7.128;2023-04-25T07:00:20;6.90;1.00
12152;DHT22;6139;51.274;7.128;2023-04-25T07:01:21;6.90;1.00
12152;DHT22;6139;51.274;7.128;2023-04-25T07:02:23;6.90;1.00
12152;DHT22;6139;51.274;7.128;2023-04-25T07:03:28;6.90;15.20
12152;DHT22;6139;51.274;7.128;2023-04-25T07:04:34;6.90;99.90
12152;DHT22;6139;51.274;7.128;2023-04-25T07:05:37;6.90;1.00
12152;DHT22;6139;51.274;7.128;2023-04-25T07:06:38;6.80;99.90
12152;DHT22;6139;51.274;7.128;2023-04-25T07:07:43;6.80;1.00
12152;DHT22;6139;51.274;7.128;2023-04-25T07:08:45;6.80;1.00
12152;DHT22;6139;51.274;7.128;2023-04-25T07:09:46;6.80;1.00
12152;DHT22;6139;51.274;7.128;2023-04-25T07:10:49;6.80;99.90
12152;DHT22;6139;51.274;7.128;2023-04-25T07:11:51;6.90;99.90
12152;DHT22;6139;51.274;7.128;2023-04-25T07:12:53;6.90;1.00
12152;DHT22;6139;51.274;7.128;2023-04-25T07:13:54;6.90;99.90